Strona główna
METAR-TAF:

METAR-TAF

Lotnisko :

Bric della Croce

Turyn, Włochy

Szerokość geograficzna: 45-02N, Długość geograficzna: 007-44E, wysokość: 709 m

Aktualna obserwacja pogody

Raport powstał 56 minut temu, godzina 05:55 UTC
Wiatr 7 kt od północno-północny wschód
Temperatura 15°C
Wilgotność 94%
Ciśnienie 1018 hPa
Widzialność 10 km lub więcej
Przerywane chmury na wysokości 3000 ft

METAR: LIMK 010555Z 02007KT 9999 BKN030 15/14 Q1018 RMK BKN VAL FOSCHIA VIS MIN 9999

czas: 08:51 (06:51 UTC)


TAF: brakujący

Obserwacja i prognoza pogody dla ponad 4000 lotnisk (raport METAR i TAF).

Dostępne stacje oznaczono żółtymi i czerwonymi punktami na mapie.

Najedź kursorem aby zobaczyć nazwę stacji.

Kliknij aby zobaczyć obserwacje i prognozy pogody.

Aby zmienić mapę: kliknij na zielony przycisk z czarnym krzyżykiem, aby powiększyć; na zielony przycisk z myślnikiem, aby pomniejszyć; na zielone strzałki, aby przejść do map sąsiednich.


METAR-TAF: